Airfield :
LOGIN :

Register | Disclaimer

   EN    FR    IT 

 










Legend :    VFR   Marginal VFR   IFR   Intensive IFR   Very Intensive IFR
Visi :
Ceiling :
>= 8 km
>= 3000ft
5 to 8 km
1000 to 3000 ft
1500m to 5 km
500 to 1000 ft
800 to 1500m
200 to 500 ft
< 800m
< 200 ft
Symbols :   Thunderstorms  Fog  Heavy snow  Heavy precipitations  Wind > 20 kt
SIGMETs :     Misc.  Thunderstorms  Icing  Turbulence  Mountain Waves  Volcanic Ashes






- Airport Elevation : 300 ft
- IATA code : MLA


LMML - Malta Luqa

CURRENT METAR :
  • 240515Z 27005KT 9999 FEW013 BKN022 19/18 Q1020 NOSIG

EXPIRED METARs :
  • 240445Z 28005KT 9999 BKN017 19/17 Q1021 NOSIG
  • 240415Z 28005KT 9999 FEW025 19/17 Q1021 NOSIG
  • 240345Z 27006KT 9999 FEW023 18/17 Q1021 NOSIG
  • 240316Z 27005KT 9999 FEW020 18/17 Q1021 NOSIG
  • 240245Z 27006KT 9999 FEW020 18/17 Q1021 NOSIG

TAF TAF LMML
Valid from the 24 at 06:00 until the 25 at 06:00 UTC


240500Z 2406/2506 30015KT 9999 FEW020
TEMPO 2406/2410 BKN015



MET'MAP, your aeronautical weather chart ! - Copyright ORBIFLY December 2007 - Disclaimer

ORBIFLY MET'MAP TEAM :

Programming & Development : Alexandra Zaïnal
Concept & original design : Baudouin d'Aumeries
Assistance for programming : Marc-Olivier Méhu
Technical & hardware support : Manuel Goepfert

Contact : metmap@orbifly.com




SOURCES & CREDITS :

   NOAA